sensor_id;sensor_type;location;lat;lon;timestamp;P1;durP1;ratioP1;P2;durP2;ratioP2
84025;SDS011;74110;45.660;25.582;2023-11-21T00:01:44;19.50;;;11.10;;
84025;SDS011;74110;45.660;25.582;2023-11-21T00:04:13;19.60;;;10.30;;
84025;SDS011;74110;45.660;25.582;2023-11-21T00:06:44;18.50;;;10.00;;
84025;SDS011;74110;45.660;25.582;2023-11-21T00:09:15;18.10;;;10.80;;
84025;SDS011;74110;45.660;25.582;2023-11-21T00:11:46;18.00;;;10.20;;
84025;SDS011;74110;45.660;25.582;2023-11-21T00:14:16;17.30;;;9.40;;
84025;SDS011;74110;45.660;25.582;2023-11-21T00:16:44;18.00;;;10.00;;
84025;SDS011;74110;45.660;25.582;2023-11-21T00:19:13;20.10;;;9.70;;
84025;SDS011;74110;45.660;25.582;2023-11-21T00:21:43;16.90;;;9.90;;
84025;SDS011;74110;45.660;25.582;2023-11-21T00:24:13;10.80;;;5.60;;
84025;SDS011;74110;45.660;25.582;2023-11-21T00:26:43;5.40;;;2.90;;
84025;SDS011;74110;45.660;25.582;2023-11-21T00:29:12;2.70;;;1.20;;
84025;SDS011;74110;45.660;25.582;2023-11-21T00:31:43;2.20;;;1.20;;
84025;SDS011;74110;45.660;25.582;2023-11-21T00:34:14;2.50;;;1.20;;
84025;SDS011;74110;45.660;25.582;2023-11-21T00:36:44;1.70;;;0.70;;
84025;SDS011;74110;45.660;25.582;2023-11-21T00:39:13;2.30;;;0.90;;
84025;SDS011;74110;45.660;25.582;2023-11-21T00:41:43;2.90;;;1.00;;
84025;SDS011;74110;45.660;25.582;2023-11-21T00:44:14;2.70;;;1.30;;
84025;SDS011;74110;45.660;25.582;2023-11-21T00:46:44;3.30;;;1.00;;
84025;SDS011;74110;45.660;25.582;2023-11-21T00:49:14;1.80;;;1.10;;
84025;SDS011;74110;45.660;25.582;2023-11-21T00:51:45;3.60;;;1.50;;
84025;SDS011;74110;45.660;25.582;2023-11-21T00:54:13;3.10;;;1.10;;
84025;SDS011;74110;45.660;25.582;2023-11-21T00:56:45;2.20;;;1.00;;
84025;SDS011;74110;45.660;25.582;2023-11-21T00:59:16;2.60;;;0.90;;
84025;SDS011;74110;45.660;25.582;2023-11-21T01:01:45;1.60;;;0.70;;
84025;SDS011;74110;45.660;25.582;2023-11-21T01:04:15;2.90;;;1.00;;
84025;SDS011;74110;45.660;25.582;2023-11-21T01:06:44;1.30;;;0.80;;
84025;SDS011;74110;45.660;25.582;2023-11-21T01:09:13;2.20;;;0.90;;
84025;SDS011;74110;45.660;25.582;2023-11-21T01:11:42;1.70;;;0.90;;
84025;SDS011;74110;45.660;25.582;2023-11-21T01:14:12;2.80;;;0.70;;
84025;SDS011;74110;45.660;25.582;2023-11-21T01:16:42;1.20;;;0.80;;
84025;SDS011;74110;45.660;25.582;2023-11-21T01:19:12;2.00;;;0.80;;
84025;SDS011;74110;45.660;25.582;2023-11-21T01:21:42;1.30;;;0.80;;
84025;SDS011;74110;45.660;25.582;2023-11-21T01:24:11;2.40;;;1.10;;
84025;SDS011;74110;45.660;25.582;2023-11-21T01:26:40;2.40;;;1.00;;
84025;SDS011;74110;45.660;25.582;2023-11-21T01:29:10;1.50;;;0.90;;
84025;SDS011;74110;45.660;25.582;2023-11-21T01:31:39;2.50;;;0.90;;
84025;SDS011;74110;45.660;25.582;2023-11-21T01:34:08;2.00;;;0.50;;
84025;SDS011;74110;45.660;25.582;2023-11-21T01:36:36;2.80;;;1.00;;
84025;SDS011;74110;45.660;25.582;2023-11-21T01:39:06;1.80;;;0.80;;
84025;SDS011;74110;45.660;25.582;2023-11-21T01:41:37;2.30;;;0.80;;
84025;SDS011;74110;45.660;25.582;2023-11-21T01:44:06;3.30;;;1.10;;
84025;SDS011;74110;45.660;25.582;2023-11-21T01:46:37;3.20;;;1.20;;
84025;SDS011;74110;45.660;25.582;2023-11-21T01:49:09;2.40;;;1.10;;
84025;SDS011;74110;45.660;25.582;2023-11-21T01:51:43;3.10;;;0.80;;
84025;SDS011;74110;45.660;25.582;2023-11-21T01:54:17;1.50;;;0.80;;
84025;SDS011;74110;45.660;25.582;2023-11-21T01:56:48;1.90;;;1.00;;
84025;SDS011;74110;45.660;25.582;2023-11-21T01:59:21;2.50;;;1.10;;
84025;SDS011;74110;45.660;25.582;2023-11-21T02:01:52;1.80;;;0.90;;
84025;SDS011;74110;45.660;25.582;2023-11-21T02:04:21;1.80;;;1.00;;
84025;SDS011;74110;45.660;25.582;2023-11-21T02:06:51;3.00;;;1.00;;
84025;SDS011;74110;45.660;25.582;2023-11-21T02:09:27;1.70;;;0.70;;
84025;SDS011;74110;45.660;25.582;2023-11-21T02:12:01;1.50;;;0.70;;
84025;SDS011;74110;45.660;25.582;2023-11-21T02:14:30;1.50;;;0.80;;
84025;SDS011;74110;45.660;25.582;2023-11-21T02:17:00;1.90;;;0.80;;
84025;SDS011;74110;45.660;25.582;2023-11-21T02:19:32;2.30;;;0.90;;
84025;SDS011;74110;45.660;25.582;2023-11-21T02:22:02;4.10;;;1.10;;
84025;SDS011;74110;45.660;25.582;2023-11-21T02:24:35;3.80;;;0.90;;
84025;SDS011;74110;45.660;25.582;2023-11-21T02:27:04;0.90;;;0.50;;
84025;SDS011;74110;45.660;25.582;2023-11-21T02:29:35;1.40;;;0.40;;
84025;SDS011;74110;45.660;25.582;2023-11-21T02:32:04;2.00;;;0.70;;
84025;SDS011;74110;45.660;25.582;2023-11-21T02:34:34;2.40;;;0.90;;
84025;SDS011;74110;45.660;25.582;2023-11-21T02:37:03;1.30;;;0.70;;
84025;SDS011;74110;45.660;25.582;2023-11-21T02:39:35;2.00;;;1.00;;
84025;SDS011;74110;45.660;25.582;2023-11-21T02:42:05;2.60;;;0.80;;
84025;SDS011;74110;45.660;25.582;2023-11-21T02:44:33;2.50;;;1.20;;
84025;SDS011;74110;45.660;25.582;2023-11-21T02:47:02;2.60;;;1.30;;
84025;SDS011;74110;45.660;25.582;2023-11-21T02:49:33;2.10;;;1.10;;
84025;SDS011;74110;45.660;25.582;2023-11-21T02:52:03;2.90;;;1.40;;
84025;SDS011;74110;45.660;25.582;2023-11-21T02:54:32;3.00;;;1.50;;
84025;SDS011;74110;45.660;25.582;2023-11-21T02:57:05;2.40;;;1.40;;
84025;SDS011;74110;45.660;25.582;2023-11-21T02:59:34;5.80;;;1.60;;
84025;SDS011;74110;45.660;25.582;2023-11-21T03:02:03;3.70;;;1.30;;
84025;SDS011;74110;45.660;25.582;2023-11-21T03:04:33;2.50;;;1.50;;
84025;SDS011;74110;45.660;25.582;2023-11-21T03:07:03;3.50;;;1.50;;
84025;SDS011;74110;45.660;25.582;2023-11-21T03:09:35;2.30;;;1.70;;
84025;SDS011;74110;45.660;25.582;2023-11-21T03:12:04;3.60;;;1.40;;
84025;SDS011;74110;45.660;25.582;2023-11-21T03:14:34;4.40;;;1.80;;
84025;SDS011;74110;45.660;25.582;2023-11-21T03:17:04;2.20;;;1.40;;
84025;SDS011;74110;45.660;25.582;2023-11-21T03:19:33;2.50;;;1.30;;
84025;SDS011;74110;45.660;25.582;2023-11-21T03:22:03;5.40;;;1.50;;
84025;SDS011;74110;45.660;25.582;2023-11-21T03:24:32;4.00;;;1.50;;
84025;SDS011;74110;45.660;25.582;2023-11-21T03:27:03;6.80;;;1.80;;
84025;SDS011;74110;45.660;25.582;2023-11-21T03:29:33;2.80;;;1.80;;
84025;SDS011;74110;45.660;25.582;2023-11-21T03:32:02;3.10;;;1.80;;
84025;SDS011;74110;45.660;25.582;2023-11-21T03:34:33;2.80;;;1.40;;
84025;SDS011;74110;45.660;25.582;2023-11-21T03:37:02;3.60;;;1.50;;
84025;SDS011;74110;45.660;25.582;2023-11-21T03:39:31;3.30;;;1.50;;
84025;SDS011;74110;45.660;25.582;2023-11-21T03:42:01;6.30;;;1.60;;
84025;SDS011;74110;45.660;25.582;2023-11-21T03:44:30;3.60;;;1.70;;
84025;SDS011;74110;45.660;25.582;2023-11-21T03:47:01;4.40;;;2.00;;
84025;SDS011;74110;45.660;25.582;2023-11-21T03:49:32;3.60;;;1.80;;
84025;SDS011;74110;45.660;25.582;2023-11-21T03:52:01;4.00;;;1.90;;
84025;SDS011;74110;45.660;25.582;2023-11-21T03:54:34;4.20;;;1.90;;
84025;SDS011;74110;45.660;25.582;2023-11-21T03:57:04;4.10;;;2.00;;
84025;SDS011;74110;45.660;25.582;2023-11-21T03:59:33;4.20;;;2.10;;
84025;SDS011;74110;45.660;25.582;2023-11-21T04:02:02;3.10;;;2.20;;
84025;SDS011;74110;45.660;25.582;2023-11-21T04:04:31;5.20;;;2.20;;
84025;SDS011;74110;45.660;25.582;2023-11-21T04:07:00;6.90;;;2.70;;
84025;SDS011;74110;45.660;25.582;2023-11-21T04:09:30;3.20;;;2.00;;
84025;SDS011;74110;45.660;25.582;2023-11-21T04:11:59;4.10;;;2.00;;
84025;SDS011;74110;45.660;25.582;2023-11-21T04:14:27;4.40;;;2.10;;
84025;SDS011;74110;45.660;25.582;2023-11-21T04:16:57;4.80;;;1.90;;
84025;SDS011;74110;45.660;25.582;2023-11-21T04:19:28;6.10;;;2.00;;
84025;SDS011;74110;45.660;25.582;2023-11-21T04:21:58;4.10;;;1.80;;
84025;SDS011;74110;45.660;25.582;2023-11-21T04:24:27;3.50;;;1.50;;
84025;SDS011;74110;45.660;25.582;2023-11-21T04:26:58;4.00;;;2.10;;
84025;SDS011;74110;45.660;25.582;2023-11-21T04:29:27;4.50;;;2.30;;
84025;SDS011;74110;45.660;25.582;2023-11-21T04:31:56;5.10;;;2.00;;
84025;SDS011;74110;45.660;25.582;2023-11-21T04:34:26;3.80;;;2.40;;
84025;SDS011;74110;45.660;25.582;2023-11-21T04:36:55;4.00;;;2.40;;
84025;SDS011;74110;45.660;25.582;2023-11-21T04:39:25;6.00;;;2.40;;
84025;SDS011;74110;45.660;25.582;2023-11-21T04:41:54;5.90;;;2.70;;
84025;SDS011;74110;45.660;25.582;2023-11-21T04:44:24;5.50;;;2.60;;
84025;SDS011;74110;45.660;25.582;2023-11-21T04:46:54;6.30;;;3.10;;
84025;SDS011;74110;45.660;25.582;2023-11-21T04:49:23;4.90;;;2.90;;
84025;SDS011;74110;45.660;25.582;2023-11-21T04:51:52;4.90;;;2.80;;
84025;SDS011;74110;45.660;25.582;2023-11-21T04:54:22;6.80;;;3.80;;
84025;SDS011;74110;45.660;25.582;2023-11-21T04:56:55;7.10;;;3.20;;
84025;SDS011;74110;45.660;25.582;2023-11-21T04:59:24;7.20;;;3.20;;
84025;SDS011;74110;45.660;25.582;2023-11-21T05:01:54;5.80;;;3.00;;
84025;SDS011;74110;45.660;25.582;2023-11-21T05:04:24;4.70;;;2.90;;
84025;SDS011;74110;45.660;25.582;2023-11-21T05:06:53;6.90;;;3.20;;
84025;SDS011;74110;45.660;25.582;2023-11-21T05:09:22;5.40;;;3.00;;
84025;SDS011;74110;45.660;25.582;2023-11-21T05:11:52;6.00;;;2.70;;
84025;SDS011;74110;45.660;25.582;2023-11-21T05:14:22;5.70;;;2.90;;
84025;SDS011;74110;45.660;25.582;2023-11-21T05:16:51;6.10;;;3.00;;
84025;SDS011;74110;45.660;25.582;2023-11-21T05:19:20;6.10;;;3.50;;
84025;SDS011;74110;45.660;25.582;2023-11-21T05:21:49;10.10;;;4.40;;
84025;SDS011;74110;45.660;25.582;2023-11-21T05:24:18;10.20;;;4.60;;
84025;SDS011;74110;45.660;25.582;2023-11-21T05:26:48;8.50;;;4.50;;
84025;SDS011;74110;45.660;25.582;2023-11-21T05:29:17;8.80;;;4.10;;
84025;SDS011;74110;45.660;25.582;2023-11-21T05:31:47;8.80;;;4.10;;
84025;SDS011;74110;45.660;25.582;2023-11-21T05:34:16;11.20;;;4.20;;
84025;SDS011;74110;45.660;25.582;2023-11-21T05:36:46;15.10;;;5.80;;
84025;SDS011;74110;45.660;25.582;2023-11-21T05:39:18;22.70;;;9.10;;
84025;SDS011;74110;45.660;25.582;2023-11-21T05:41:48;20.80;;;9.40;;
84025;SDS011;74110;45.660;25.582;2023-11-21T05:44:19;16.50;;;8.20;;
84025;SDS011;74110;45.660;25.582;2023-11-21T05:46:49;27.60;;;11.50;;
84025;SDS011;74110;45.660;25.582;2023-11-21T05:49:19;19.90;;;8.60;;
84025;SDS011;74110;45.660;25.582;2023-11-21T05:51:54;20.10;;;7.60;;
84025;SDS011;74110;45.660;25.582;2023-11-21T05:54:28;21.20;;;8.20;;
84025;SDS011;74110;45.660;25.582;2023-11-21T05:56:57;14.50;;;6.30;;
84025;SDS011;74110;45.660;25.582;2023-11-21T05:59:26;18.60;;;7.40;;
84025;SDS011;74110;45.660;25.582;2023-11-21T06:01:56;22.30;;;7.30;;
84025;SDS011;74110;45.660;25.582;2023-11-21T06:04:25;14.70;;;6.90;;
84025;SDS011;74110;45.660;25.582;2023-11-21T06:06:56;16.70;;;6.60;;
84025;SDS011;74110;45.660;25.582;2023-11-21T06:09:29;18.00;;;7.50;;
84025;SDS011;74110;45.660;25.582;2023-11-21T06:11:58;16.50;;;6.40;;
84025;SDS011;74110;45.660;25.582;2023-11-21T06:14:27;19.00;;;8.20;;
84025;SDS011;74110;45.660;25.582;2023-11-21T06:16:58;14.40;;;7.70;;
84025;SDS011;74110;45.660;25.582;2023-11-21T06:19:29;16.00;;;8.30;;
84025;SDS011;74110;45.660;25.582;2023-11-21T06:21:58;17.40;;;7.60;;
84025;SDS011;74110;45.660;25.582;2023-11-21T06:24:28;16.10;;;7.90;;
84025;SDS011;74110;45.660;25.582;2023-11-21T06:26:58;14.90;;;7.10;;
84025;SDS011;74110;45.660;25.582;2023-11-21T06:29:27;17.10;;;7.50;;
84025;SDS011;74110;45.660;25.582;2023-11-21T06:31:56;14.70;;;7.70;;
84025;SDS011;74110;45.660;25.582;2023-11-21T06:34:30;17.30;;;8.70;;
84025;SDS011;74110;45.660;25.582;2023-11-21T06:37:00;20.30;;;7.80;;
84025;SDS011;74110;45.660;25.582;2023-11-21T06:39:28;19.30;;;8.70;;
84025;SDS011;74110;45.660;25.582;2023-11-21T06:41:58;16.80;;;8.00;;
84025;SDS011;74110;45.660;25.582;2023-11-21T06:44:29;12.10;;;6.80;;
84025;SDS011;74110;45.660;25.582;2023-11-21T06:46:57;19.00;;;8.40;;
84025;SDS011;74110;45.660;25.582;2023-11-21T06:49:28;14.30;;;6.80;;
84025;SDS011;74110;45.660;25.582;2023-11-21T06:51:59;16.20;;;8.20;;
84025;SDS011;74110;45.660;25.582;2023-11-21T06:54:28;15.70;;;7.60;;
84025;SDS011;74110;45.660;25.582;2023-11-21T06:56:58;17.40;;;7.90;;
84025;SDS011;74110;45.660;25.582;2023-11-21T06:59:30;17.00;;;8.10;;
84025;SDS011;74110;45.660;25.582;2023-11-21T07:01:59;16.30;;;7.70;;
84025;SDS011;74110;45.660;25.582;2023-11-21T07:04:29;14.50;;;8.00;;
84025;SDS011;74110;45.660;25.582;2023-11-21T07:07:00;17.20;;;8.60;;
84025;SDS011;74110;45.660;25.582;2023-11-21T07:09:29;14.10;;;8.30;;
84025;SDS011;74110;45.660;25.582;2023-11-21T07:12:00;17.50;;;8.00;;
84025;SDS011;74110;45.660;25.582;2023-11-21T07:14:35;15.40;;;9.20;;
84025;SDS011;74110;45.660;25.582;2023-11-21T07:17:04;15.30;;;8.90;;
84025;SDS011;74110;45.660;25.582;2023-11-21T07:19:32;15.90;;;8.90;;
84025;SDS011;74110;45.660;25.582;2023-11-21T07:22:04;18.60;;;8.70;;
84025;SDS011;74110;45.660;25.582;2023-11-21T07:24:33;18.10;;;9.80;;
84025;SDS011;74110;45.660;25.582;2023-11-21T07:27:02;14.40;;;8.70;;
84025;SDS011;74110;45.660;25.582;2023-11-21T07:29:33;15.10;;;9.00;;
84025;SDS011;74110;45.660;25.582;2023-11-21T07:32:02;14.90;;;8.80;;
84025;SDS011;74110;45.660;25.582;2023-11-21T07:34:32;15.20;;;8.70;;
84025;SDS011;74110;45.660;25.582;2023-11-21T07:37:02;16.70;;;8.80;;
84025;SDS011;74110;45.660;25.582;2023-11-21T07:39:33;13.20;;;7.20;;
84025;SDS011;74110;45.660;25.582;2023-11-21T07:42:02;11.70;;;7.20;;
84025;SDS011;74110;45.660;25.582;2023-11-21T07:44:34;23.20;;;11.90;;
84025;SDS011;74110;45.660;25.582;2023-11-21T07:47:03;23.70;;;12.60;;
84025;SDS011;74110;45.660;25.582;2023-11-21T07:49:32;24.00;;;12.30;;
84025;SDS011;74110;45.660;25.582;2023-11-21T07:52:02;23.00;;;12.10;;
84025;SDS011;74110;45.660;25.582;2023-11-21T07:54:32;24.40;;;13.80;;
84025;SDS011;74110;45.660;25.582;2023-11-21T07:59:58;18.50;;;10.30;;
84025;SDS011;74110;45.660;25.582;2023-11-21T08:02:39;25.30;;;10.70;;
84025;SDS011;74110;45.660;25.582;2023-11-21T08:05:12;17.80;;;9.30;;
84025;SDS011;74110;45.660;25.582;2023-11-21T08:07:53;16.80;;;9.30;;
84025;SDS011;74110;45.660;25.582;2023-11-21T08:10:24;17.40;;;9.20;;
84025;SDS011;74110;45.660;25.582;2023-11-21T08:12:54;17.30;;;10.50;;
84025;SDS011;74110;45.660;25.582;2023-11-21T08:15:22;16.30;;;10.10;;
84025;SDS011;74110;45.660;25.582;2023-11-21T08:17:51;16.40;;;8.90;;
84025;SDS011;74110;45.660;25.582;2023-11-21T08:20:20;19.00;;;9.80;;
84025;SDS011;74110;45.660;25.582;2023-11-21T08:22:52;15.30;;;9.70;;
84025;SDS011;74110;45.660;25.582;2023-11-21T08:25:21;17.70;;;10.60;;
84025;SDS011;74110;45.660;25.582;2023-11-21T08:27:53;20.60;;;10.60;;
84025;SDS011;74110;45.660;25.582;2023-11-21T08:30:24;19.20;;;10.30;;
84025;SDS011;74110;45.660;25.582;2023-11-21T08:32:53;18.00;;;10.00;;
84025;SDS011;74110;45.660;25.582;2023-11-21T08:35:22;20.70;;;10.60;;
84025;SDS011;74110;45.660;25.582;2023-11-21T08:37:53;20.00;;;10.70;;
84025;SDS011;74110;45.660;25.582;2023-11-21T08:40:22;18.30;;;10.00;;
84025;SDS011;74110;45.660;25.582;2023-11-21T08:42:52;19.00;;;11.10;;
84025;SDS011;74110;45.660;25.582;2023-11-21T08:45:22;20.30;;;11.90;;
84025;SDS011;74110;45.660;25.582;2023-11-21T08:47:51;24.50;;;12.90;;
84025;SDS011;74110;45.660;25.582;2023-11-21T08:50:22;22.10;;;11.50;;
84025;SDS011;74110;45.660;25.582;2023-11-21T08:52:52;21.20;;;11.70;;
84025;SDS011;74110;45.660;25.582;2023-11-21T08:55:23;25.40;;;12.80;;
84025;SDS011;74110;45.660;25.582;2023-11-21T08:57:53;22.60;;;13.10;;
84025;SDS011;74110;45.660;25.582;2023-11-21T09:00:27;24.40;;;12.70;;
84025;SDS011;74110;45.660;25.582;2023-11-21T09:03:02;22.20;;;12.40;;
84025;SDS011;74110;45.660;25.582;2023-11-21T09:05:38;18.20;;;10.20;;
84025;SDS011;74110;45.660;25.582;2023-11-21T09:08:07;15.20;;;9.10;;
84025;SDS011;74110;45.660;25.582;2023-11-21T09:10:36;14.70;;;8.50;;
84025;SDS011;74110;45.660;25.582;2023-11-21T09:13:06;16.70;;;8.80;;
84025;SDS011;74110;45.660;25.582;2023-11-21T09:15:45;11.40;;;6.50;;
84025;SDS011;74110;45.660;25.582;2023-11-21T09:18:14;11.90;;;6.70;;
84025;SDS011;74110;45.660;25.582;2023-11-21T09:20:45;14.20;;;6.80;;
84025;SDS011;74110;45.660;25.582;2023-11-21T09:23:14;8.50;;;5.30;;
84025;SDS011;74110;45.660;25.582;2023-11-21T09:25:44;9.30;;;5.10;;
84025;SDS011;74110;45.660;25.582;2023-11-21T09:28:17;10.40;;;5.80;;
84025;SDS011;74110;45.660;25.582;2023-11-21T09:30:50;7.80;;;4.40;;
84025;SDS011;74110;45.660;25.582;2023-11-21T09:33:19;9.20;;;5.20;;
84025;SDS011;74110;45.660;25.582;2023-11-21T09:35:50;8.30;;;4.30;;
84025;SDS011;74110;45.660;25.582;2023-11-21T09:38:20;6.80;;;4.30;;
84025;SDS011;74110;45.660;25.582;2023-11-21T09:40:49;8.90;;;4.20;;
84025;SDS011;74110;45.660;25.582;2023-11-21T09:43:25;10.40;;;4.30;;
84025;SDS011;74110;45.660;25.582;2023-11-21T09:45:59;7.50;;;4.30;;
84025;SDS011;74110;45.660;25.582;2023-11-21T09:48:33;7.80;;;4.30;;
84025;SDS011;74110;45.660;25.582;2023-11-21T09:51:08;8.00;;;4.40;;
84025;SDS011;74110;45.660;25.582;2023-11-21T09:53:40;8.60;;;4.30;;
84025;SDS011;74110;45.660;25.582;2023-11-21T09:56:21;6.70;;;3.80;;
84025;SDS011;74110;45.660;25.582;2023-11-21T09:58:54;6.20;;;4.10;;
84025;SDS011;74110;45.660;25.582;2023-11-21T10:01:25;6.40;;;3.80;;
84025;SDS011;74110;45.660;25.582;2023-11-21T10:03:56;6.10;;;3.40;;
84025;SDS011;74110;45.660;25.582;2023-11-21T10:06:27;5.20;;;3.00;;
84025;SDS011;74110;45.660;25.582;2023-11-21T10:08:59;4.70;;;3.10;;
84025;SDS011;74110;45.660;25.582;2023-11-21T10:11:29;6.60;;;3.10;;
84025;SDS011;74110;45.660;25.582;2023-11-21T10:13:59;6.30;;;3.40;;
84025;SDS011;74110;45.660;25.582;2023-11-21T10:16:31;4.50;;;2.80;;
84025;SDS011;74110;45.660;25.582;2023-11-21T10:19:01;4.90;;;3.00;;
84025;SDS011;74110;45.660;25.582;2023-11-21T10:21:39;4.70;;;2.70;;
84025;SDS011;74110;45.660;25.582;2023-11-21T10:24:09;4.90;;;2.90;;
84025;SDS011;74110;45.660;25.582;2023-11-21T10:26:38;6.20;;;2.50;;
84025;SDS011;74110;45.660;25.582;2023-11-21T10:29:23;4.90;;;2.70;;
84025;SDS011;74110;45.660;25.582;2023-11-21T10:31:57;4.50;;;2.10;;
84025;SDS011;74110;45.660;25.582;2023-11-21T10:34:27;5.40;;;2.20;;
84025;SDS011;74110;45.660;25.582;2023-11-21T10:37:13;5.50;;;2.10;;
84025;SDS011;74110;45.660;25.582;2023-11-21T10:39:49;5.10;;;1.80;;
84025;SDS011;74110;45.660;25.582;2023-11-21T10:42:18;3.00;;;1.80;;
84025;SDS011;74110;45.660;25.582;2023-11-21T10:45:28;4.00;;;2.60;;
84025;SDS011;74110;45.660;25.582;2023-11-21T10:47:58;5.50;;;2.50;;
84025;SDS011;74110;45.660;25.582;2023-11-21T10:50:28;4.30;;;2.90;;
84025;SDS011;74110;45.660;25.582;2023-11-21T10:53:00;5.60;;;3.00;;
84025;SDS011;74110;45.660;25.582;2023-11-21T10:55:34;4.80;;;2.50;;
84025;SDS011;74110;45.660;25.582;2023-11-21T10:58:05;5.80;;;2.20;;
84025;SDS011;74110;45.660;25.582;2023-11-21T11:00:36;5.80;;;2.40;;
84025;SDS011;74110;45.660;25.582;2023-11-21T11:03:10;6.30;;;2.10;;
84025;SDS011;74110;45.660;25.582;2023-11-21T11:05:45;6.60;;;2.20;;
84025;SDS011;74110;45.660;25.582;2023-11-21T11:08:21;4.00;;;2.20;;
84025;SDS011;74110;45.660;25.582;2023-11-21T11:10:55;5.90;;;2.30;;
84025;SDS011;74110;45.660;25.582;2023-11-21T11:13:24;5.80;;;2.10;;
84025;SDS011;74110;45.660;25.582;2023-11-21T11:15:57;4.70;;;2.20;;
84025;SDS011;74110;45.660;25.582;2023-11-21T11:18:32;5.10;;;2.30;;
84025;SDS011;74110;45.660;25.582;2023-11-21T11:29:54;7.10;;;2.00;;
84025;SDS011;74110;45.660;25.582;2023-11-21T11:32:37;5.90;;;2.20;;
84025;SDS011;74110;45.660;25.582;2023-11-21T11:38:24;4.40;;;2.00;;
84025;SDS011;74110;45.660;25.582;2023-11-21T11:41:01;8.90;;;2.30;;
84025;SDS011;74110;45.660;25.582;2023-11-21T11:43:38;4.00;;;1.90;;
84025;SDS011;74110;45.660;25.582;2023-11-21T11:46:13;4.10;;;2.30;;
84025;SDS011;74110;45.660;25.582;2023-11-21T11:48:44;4.30;;;2.00;;
84025;SDS011;74110;45.660;25.582;2023-11-21T11:51:15;4.80;;;2.20;;
84025;SDS011;74110;45.660;25.582;2023-11-21T11:53:51;5.30;;;2.60;;
84025;SDS011;74110;45.660;25.582;2023-11-21T11:58:57;6.80;;;2.70;;
84025;SDS011;74110;45.660;25.582;2023-11-21T12:01:28;5.20;;;2.30;;
84025;SDS011;74110;45.660;25.582;2023-11-21T12:07:04;7.10;;;2.30;;
84025;SDS011;74110;45.660;25.582;2023-11-21T12:09:33;3.30;;;2.00;;
84025;SDS011;74110;45.660;25.582;2023-11-21T12:12:02;3.60;;;2.20;;
84025;SDS011;74110;45.660;25.582;2023-11-21T12:14:32;5.10;;;2.70;;
84025;SDS011;74110;45.660;25.582;2023-11-21T12:17:02;5.40;;;2.60;;
84025;SDS011;74110;45.660;25.582;2023-11-21T12:19:33;7.00;;;2.90;;
84025;SDS011;74110;45.660;25.582;2023-11-21T12:22:02;4.40;;;2.30;;
84025;SDS011;74110;45.660;25.582;2023-11-21T12:24:32;4.90;;;2.60;;
84025;SDS011;74110;45.660;25.582;2023-11-21T12:27:04;4.20;;;2.40;;
84025;SDS011;74110;45.660;25.582;2023-11-21T12:29:33;5.90;;;2.40;;
84025;SDS011;74110;45.660;25.582;2023-11-21T12:32:03;8.30;;;2.50;;
84025;SDS011;74110;45.660;25.582;2023-11-21T12:34:32;5.40;;;2.50;;
84025;SDS011;74110;45.660;25.582;2023-11-21T12:37:04;8.40;;;3.00;;
84025;SDS011;74110;45.660;25.582;2023-11-21T12:39:34;4.40;;;2.20;;
84025;SDS011;74110;45.660;25.582;2023-11-21T12:42:03;4.40;;;2.60;;
84025;SDS011;74110;45.660;25.582;2023-11-21T12:44:34;6.10;;;3.30;;
84025;SDS011;74110;45.660;25.582;2023-11-21T12:47:06;4.80;;;2.60;;
84025;SDS011;74110;45.660;25.582;2023-11-21T12:49:37;3.70;;;2.30;;
84025;SDS011;74110;45.660;25.582;2023-11-21T12:52:07;5.90;;;2.50;;
84025;SDS011;74110;45.660;25.582;2023-11-21T12:54:40;5.10;;;2.10;;
84025;SDS011;74110;45.660;25.582;2023-11-21T12:57:09;6.20;;;2.20;;
84025;SDS011;74110;45.660;25.582;2023-11-21T12:59:38;6.40;;;2.40;;
84025;SDS011;74110;45.660;25.582;2023-11-21T13:02:07;5.80;;;2.90;;
84025;SDS011;74110;45.660;25.582;2023-11-21T13:04:37;8.10;;;2.60;;
84025;SDS011;74110;45.660;25.582;2023-11-21T13:07:07;4.40;;;2.50;;
84025;SDS011;74110;45.660;25.582;2023-11-21T13:09:43;6.20;;;3.10;;
84025;SDS011;74110;45.660;25.582;2023-11-21T13:12:13;3.90;;;2.20;;
84025;SDS011;74110;45.660;25.582;2023-11-21T13:14:42;8.60;;;2.50;;
84025;SDS011;74110;45.660;25.582;2023-11-21T13:17:11;6.10;;;2.30;;
84025;SDS011;74110;45.660;25.582;2023-11-21T13:19:41;5.40;;;2.20;;
84025;SDS011;74110;45.660;25.582;2023-11-21T13:22:11;3.20;;;2.20;;
84025;SDS011;74110;45.660;25.582;2023-11-21T13:24:39;4.50;;;2.30;;
84025;SDS011;74110;45.660;25.582;2023-11-21T13:27:10;3.30;;;1.80;;
84025;SDS011;74110;45.660;25.582;2023-11-21T13:29:40;5.90;;;2.10;;
84025;SDS011;74110;45.660;25.582;2023-11-21T13:32:11;5.90;;;2.30;;
84025;SDS011;74110;45.660;25.582;2023-11-21T13:34:41;4.40;;;2.10;;
84025;SDS011;74110;45.660;25.582;2023-11-21T13:37:14;5.70;;;2.60;;
84025;SDS011;74110;45.660;25.582;2023-11-21T13:39:43;5.60;;;2.50;;
84025;SDS011;74110;45.660;25.582;2023-11-21T13:42:16;5.00;;;2.50;;
84025;SDS011;74110;45.660;25.582;2023-11-21T13:44:45;5.90;;;2.90;;
84025;SDS011;74110;45.660;25.582;2023-11-21T13:47:17;4.50;;;2.70;;
84025;SDS011;74110;45.660;25.582;2023-11-21T13:49:45;6.60;;;3.20;;
84025;SDS011;74110;45.660;25.582;2023-11-21T13:52:16;5.10;;;2.60;;
84025;SDS011;74110;45.660;25.582;2023-11-21T13:54:47;7.90;;;3.40;;
84025;SDS011;74110;45.660;25.582;2023-11-21T13:57:16;5.70;;;2.50;;
84025;SDS011;74110;45.660;25.582;2023-11-21T13:59:44;8.60;;;3.20;;
84025;SDS011;74110;45.660;25.582;2023-11-21T14:02:14;8.60;;;3.20;;
84025;SDS011;74110;45.660;25.582;2023-11-21T14:04:46;6.30;;;3.20;;
84025;SDS011;74110;45.660;25.582;2023-11-21T14:07:15;11.10;;;4.10;;
84025;SDS011;74110;45.660;25.582;2023-11-21T14:10:03;7.30;;;3.80;;
84025;SDS011;74110;45.660;25.582;2023-11-21T14:12:35;8.00;;;3.70;;
84025;SDS011;74110;45.660;25.582;2023-11-21T14:15:08;8.30;;;3.00;;
84025;SDS011;74110;45.660;25.582;2023-11-21T14:17:38;6.40;;;3.20;;
84025;SDS011;74110;45.660;25.582;2023-11-21T14:20:09;9.10;;;3.60;;
84025;SDS011;74110;45.660;25.582;2023-11-21T14:22:45;8.70;;;3.70;;
84025;SDS011;74110;45.660;25.582;2023-11-21T14:25:15;9.10;;;4.50;;
84025;SDS011;74110;45.660;25.582;2023-11-21T14:27:46;8.30;;;3.90;;
84025;SDS011;74110;45.660;25.582;2023-11-21T14:30:15;7.20;;;3.60;;
84025;SDS011;74110;45.660;25.582;2023-11-21T14:32:47;9.40;;;3.40;;
84025;SDS011;74110;45.660;25.582;2023-11-21T14:35:18;6.50;;;2.80;;
84025;SDS011;74110;45.660;25.582;2023-11-21T14:37:47;5.00;;;2.50;;
84025;SDS011;74110;45.660;25.582;2023-11-21T14:40:18;8.60;;;3.20;;
84025;SDS011;74110;45.660;25.582;2023-11-21T14:42:53;7.80;;;3.50;;
84025;SDS011;74110;45.660;25.582;2023-11-21T14:45:22;4.50;;;2.60;;
84025;SDS011;74110;45.660;25.582;2023-11-21T14:47:54;5.00;;;3.10;;
84025;SDS011;74110;45.660;25.582;2023-11-21T14:50:35;6.50;;;3.60;;
84025;SDS011;74110;45.660;25.582;2023-11-21T14:53:04;7.00;;;3.60;;
84025;SDS011;74110;45.660;25.582;2023-11-21T14:55:37;8.30;;;3.90;;
84025;SDS011;74110;45.660;25.582;2023-11-21T14:58:18;7.30;;;4.30;;
84025;SDS011;74110;45.660;25.582;2023-11-21T15:00:57;6.90;;;3.30;;
84025;SDS011;74110;45.660;25.582;2023-11-21T15:03:28;6.80;;;2.90;;
84025;SDS011;74110;45.660;25.582;2023-11-21T15:06:11;8.00;;;3.70;;
84025;SDS011;74110;45.660;25.582;2023-11-21T15:08:58;7.90;;;3.60;;
84025;SDS011;74110;45.660;25.582;2023-11-21T15:11:56;6.80;;;3.20;;